Galena, Nevada Weather observations

Data are for 10 minute period ending at time listed.
 Day   Time    Ave.   Ave.  Ave.  Vector   Max.   Total    Solar   
  of    of     Air    Rel.  Wind   Wind    Wind  Precip.   Rad.    
Year   Day     Temp.  Hum.  Speed  Dir.    Gust                    
2016   (PST)    F      %     mph   deg.    mph     in.     W/m2    
------------------------------------------------------------------- 
 209   11:00   90.0     8    7.0    47     12.0    0.00     918  
 209   12:00   93.0     8    5.0    31     14.0    0.00     988  
 209   13:00   94.0     9    4.0   357     16.0    0.00     999  
 209   14:00   97.0     8    6.0   240     23.0    0.00     955  
 209   15:00   96.0     8   10.0   234     21.0    0.00     856  
 209   16:00   96.0     9    8.0   240     26.0    0.00     700  
 209   17:00   92.0    13   13.0   259     27.0    0.00     509  
 209   18:00   89.0    15   11.0   274     26.0    0.00     163  
 209   19:00   84.0    18   12.0   275     26.0    0.00      25  
 209   20:00   82.0    20    3.0   206     24.0    0.00       6  
 209   21:00   80.0    21    7.0   302     13.0    0.00       0  
 209   22:00   75.0    24    3.0   246     11.0    0.00       0  
 209   23:00   74.0    27    3.0   253      6.0    0.00       0  
 210    0:00   69.0    30    2.0   261      7.0    0.00       0  
 210    1:00   69.0    31    4.0   251      7.0    0.00       0  
 210    2:00   69.0    33    5.0   276      7.0    0.00       0  
 210    3:00   66.0    36    1.0   266      6.0    0.00       0  
 210    4:00   66.0    36    3.0   288      5.0    0.00       0  
 210    5:00   70.0    32    6.0   290      8.0    0.00       0  
 210    6:00   72.0    33    2.0   172      8.0    0.00      49  
 210    7:00   78.0    25    1.0   217      5.0    0.00     223  
 210    8:00   82.0    28    3.0   153      5.0    0.00     425  
 210    9:00   85.0    23    3.0    65      9.0    0.00     617  
 210   10:00   88.0    18    5.0    58     10.0    0.00     779  

Return to Galena, Nevada graphs page.


Western Regional Climate Center,wrcc@dri.edu